createdAt,value
2023-05-21T00:00:44.012Z,26
2023-05-21T00:03:15.265Z,26
2023-05-21T00:05:46.299Z,27
2023-05-21T00:08:17.016Z,22
2023-05-21T00:10:47.515Z,25
2023-05-21T00:13:18.186Z,29
2023-05-21T00:15:48.695Z,28
2023-05-21T00:18:19.409Z,27
2023-05-21T00:20:50.114Z,29
2023-05-21T00:23:20.803Z,28
2023-05-21T00:25:51.613Z,25
2023-05-21T00:28:22.760Z,28
2023-05-21T00:30:54.704Z,24
2023-05-21T00:33:26.268Z,24
2023-05-21T00:35:56.930Z,24
2023-05-21T00:38:29.022Z,28
2023-05-21T00:40:59.628Z,27
2023-05-21T00:43:30.769Z,28
2023-05-21T00:46:01.397Z,28
2023-05-21T00:48:32.010Z,32
2023-05-21T00:51:03.879Z,24
2023-05-21T00:53:34.395Z,26
2023-05-21T00:56:06.187Z,24
2023-05-21T00:58:36.989Z,36
2023-05-21T01:01:08.188Z,28
2023-05-21T01:03:39.050Z,26
2023-05-21T01:06:09.982Z,29
2023-05-21T01:08:41.183Z,28
2023-05-21T01:11:12.632Z,26
2023-05-21T01:13:43.163Z,31
2023-05-21T01:16:14.181Z,25
2023-05-21T01:18:44.784Z,23
2023-05-21T01:21:15.617Z,25
2023-05-21T01:23:46.192Z,28
2023-05-21T01:26:17.085Z,26
2023-05-21T01:28:47.632Z,28
2023-05-21T01:31:18.832Z,31
2023-05-21T01:33:49.246Z,29
2023-05-21T01:36:20.991Z,28
2023-05-21T01:38:57.564Z,32
2023-05-21T01:44:05.709Z,30
2023-05-21T01:46:36.935Z,35
2023-05-21T01:49:07.798Z,26
2023-05-21T01:51:38.304Z,28
2023-05-21T01:54:08.559Z,32
2023-05-21T01:56:39.130Z,28
2023-05-21T01:59:09.654Z,28
2023-05-21T02:01:40.153Z,29
2023-05-21T02:04:11.029Z,35
2023-05-21T02:06:42.396Z,32
2023-05-21T02:09:12.950Z,27
2023-05-21T02:11:43.677Z,25
2023-05-21T02:14:14.564Z,32
2023-05-21T02:19:14.468Z,33
2023-05-21T02:21:45.644Z,28
2023-05-21T02:24:16.322Z,28
2023-05-21T02:26:47.369Z,28
2023-05-21T02:29:18.405Z,33
2023-05-21T02:31:49.731Z,29
2023-05-21T02:34:20.851Z,25
2023-05-21T02:36:52.101Z,30
2023-05-21T02:39:23.725Z,29
2023-05-21T02:41:56.101Z,28
2023-05-21T02:44:26.794Z,31
2023-05-21T02:46:57.738Z,32
2023-05-21T02:49:29.904Z,28
2023-05-21T02:52:00.754Z,31
2023-05-21T02:54:31.788Z,32
2023-05-21T02:57:03.031Z,32
2023-05-21T02:59:34.033Z,27
2023-05-21T03:02:05.166Z,31
2023-05-21T03:04:36.265Z,32
2023-05-21T03:07:07.045Z,28
2023-05-21T03:09:37.752Z,28
2023-05-21T03:12:08.775Z,29
2023-05-21T03:14:39.784Z,24
2023-05-21T03:17:12.304Z,29
2023-05-21T03:19:43.229Z,32
2023-05-21T03:22:14.143Z,35
2023-05-21T03:24:44.901Z,29
2023-05-21T03:27:15.628Z,25
2023-05-21T03:29:46.449Z,28
2023-05-21T03:32:17.317Z,27
2023-05-21T03:34:48.274Z,29
2023-05-21T03:37:18.924Z,32
2023-05-21T03:39:49.332Z,29
2023-05-21T03:42:19.716Z,33
2023-05-21T03:44:50.804Z,36
2023-05-21T03:47:21.666Z,28
2023-05-21T03:49:52.970Z,29
2023-05-21T03:52:23.574Z,29
2023-05-21T03:54:54.070Z,32
2023-05-21T03:57:24.886Z,34
2023-05-21T03:59:55.735Z,33
2023-05-21T04:02:26.217Z,32
2023-05-21T04:04:57.150Z,32
2023-05-21T04:07:27.575Z,29
2023-05-21T04:09:58.179Z,29
2023-05-21T04:12:29.506Z,32
2023-05-21T04:15:01.484Z,29
2023-05-21T04:17:31.849Z,32
2023-05-21T04:20:02.886Z,30
2023-05-21T04:22:34.041Z,29
2023-05-21T04:25:05.233Z,33
2023-05-21T04:27:34.514Z,32
2023-05-21T04:30:05.707Z,33
2023-05-21T04:32:37.039Z,28
2023-05-21T04:35:08.653Z,33
2023-05-21T04:37:39.661Z,29
2023-05-21T04:40:10.472Z,36
2023-05-21T04:42:41.136Z,29
2023-05-21T04:45:11.596Z,35
2023-05-21T04:47:42.537Z,32
2023-05-21T04:50:12.979Z,30
2023-05-21T04:52:43.365Z,32
2023-05-21T04:55:14.018Z,31
2023-05-21T04:57:44.568Z,38
2023-05-21T05:00:15.084Z,31
2023-05-21T05:02:45.506Z,37
2023-05-21T05:05:16.447Z,41
2023-05-21T05:07:47.664Z,38
2023-05-21T05:10:18.534Z,36
2023-05-21T05:12:49.006Z,37
2023-05-21T05:15:19.688Z,39
2023-05-21T05:17:51.066Z,36
2023-05-21T05:20:22.052Z,32
2023-05-21T05:22:53.149Z,32
2023-05-21T05:25:23.976Z,35
2023-05-21T05:27:54.786Z,33
2023-05-21T05:30:25.707Z,33
2023-05-21T05:32:56.341Z,42
2023-05-21T05:35:26.953Z,33
2023-05-21T05:37:57.798Z,37
2023-05-21T05:40:28.676Z,42
2023-05-21T05:42:59.594Z,40
2023-05-21T05:45:28.577Z,44
2023-05-21T05:47:59.677Z,36
2023-05-21T05:50:29.965Z,43
2023-05-21T05:53:01.220Z,40
2023-05-21T05:55:32.314Z,42
2023-05-21T05:58:02.645Z,42
2023-05-21T06:00:33.271Z,47
2023-05-21T06:03:04.391Z,35
2023-05-21T06:05:36.202Z,30
2023-05-21T06:08:07.006Z,35
2023-05-21T06:10:37.574Z,44
2023-05-21T06:13:06.770Z,37
2023-05-21T06:15:38.822Z,35
2023-05-21T06:18:11.751Z,39
2023-05-21T06:20:46.232Z,35
2023-05-21T06:23:16.866Z,40
2023-05-21T06:25:46.916Z,31
2023-05-21T06:28:18.248Z,28
2023-05-21T06:30:49.670Z,25
2023-05-21T06:33:23.491Z,32
2023-05-21T06:35:56.751Z,30
2023-05-21T06:38:29.158Z,36
2023-05-21T06:41:05.770Z,32
2023-05-21T06:43:39.768Z,33
2023-05-21T06:46:10.867Z,28
2023-05-21T06:48:41.566Z,32
2023-05-21T06:51:12.100Z,32
2023-05-21T06:53:43.077Z,31
2023-05-21T06:56:13.663Z,32
2023-05-21T06:58:44.586Z,28
2023-05-21T07:01:15.440Z,29
2023-05-21T07:03:46.918Z,32
2023-05-21T07:06:17.490Z,27
2023-05-21T07:08:51.577Z,32
2023-05-21T07:11:21.844Z,32
2023-05-21T07:13:52.554Z,32
2023-05-21T07:16:23.504Z,31
2023-05-21T07:18:54.155Z,28
2023-05-21T07:21:24.872Z,33
2023-05-21T07:23:56.090Z,29
2023-05-21T07:26:26.552Z,29
2023-05-21T07:28:57.214Z,29
2023-05-21T07:31:28.446Z,33
2023-05-21T07:33:59.197Z,38
2023-05-21T07:36:29.292Z,31
2023-05-21T07:38:59.991Z,29
2023-05-21T07:41:30.477Z,59
2023-05-21T07:44:01.363Z,53
2023-05-21T07:46:32.250Z,68
2023-05-21T07:49:03.111Z,41
2023-05-21T07:51:33.841Z,32
2023-05-21T07:54:04.341Z,32
2023-05-21T07:56:36.269Z,28
2023-05-21T07:59:10.844Z,24
2023-05-21T08:01:40.311Z,31
2023-05-21T08:04:11.600Z,31
2023-05-21T08:06:42.246Z,32
2023-05-21T08:09:11.387Z,38
2023-05-21T08:11:48.970Z,40
2023-05-21T08:14:33.819Z,24
2023-05-21T08:17:05.462Z,43
2023-05-21T08:19:36.161Z,41
2023-05-21T08:22:06.464Z,30
2023-05-21T08:24:39.510Z,24
2023-05-21T08:27:10.280Z,33
2023-05-21T08:29:44.940Z,24
2023-05-21T08:32:15.919Z,32
2023-05-21T08:34:47.966Z,31
2023-05-21T08:37:18.413Z,27
2023-05-21T08:39:49.307Z,31
2023-05-21T08:42:29.332Z,25
2023-05-21T08:44:51.304Z,28
2023-05-21T08:47:21.575Z,27
2023-05-21T08:49:52.270Z,27
2023-05-21T08:52:23.175Z,29
2023-05-21T08:54:52.927Z,38
2023-05-21T08:57:23.046Z,37
2023-05-21T08:59:53.423Z,29
2023-05-21T09:02:23.855Z,35
2023-05-21T09:04:55.181Z,27
2023-05-21T09:07:25.639Z,33
2023-05-21T09:09:59.185Z,32
2023-05-21T09:12:29.647Z,26
2023-05-21T09:15:00.681Z,35
2023-05-21T09:17:31.397Z,31
2023-05-21T09:20:02.199Z,29
2023-05-21T09:22:32.746Z,25
2023-05-21T09:25:06.148Z,34
2023-05-21T09:27:37.312Z,28
2023-05-21T09:30:08.960Z,29
2023-05-21T09:32:39.875Z,24
2023-05-21T09:35:11.662Z,31
2023-05-21T09:37:42.187Z,28
2023-05-21T09:40:12.898Z,27
2023-05-21T09:42:43.782Z,28
2023-05-21T09:45:19.135Z,20
2023-05-21T09:47:51.413Z,25
2023-05-21T09:50:23.052Z,24
2023-05-21T09:53:07.789Z,31
2023-05-21T09:55:41.678Z,24
2023-05-21T09:58:14.602Z,41
2023-05-21T10:00:45.495Z,31
2023-05-21T10:03:15.858Z,24
2023-05-21T10:05:47.612Z,21
2023-05-21T10:08:19.158Z,24
2023-05-21T10:10:50.051Z,24
2023-05-21T10:13:20.994Z,27
2023-05-21T10:15:51.337Z,31
2023-05-21T10:18:21.958Z,26
2023-05-21T10:20:52.446Z,26
2023-05-21T10:23:23.873Z,24
2023-05-21T10:25:55.435Z,28
2023-05-21T10:28:26.035Z,25
2023-05-21T10:30:58.492Z,25
2023-05-21T10:33:29.363Z,31
2023-05-21T10:36:00.391Z,27
2023-05-21T10:38:31.433Z,27
2023-05-21T10:41:01.914Z,29
2023-05-21T10:43:36.582Z,25
2023-05-21T10:46:08.201Z,28
2023-05-21T10:48:43.123Z,24
2023-05-21T10:51:13.875Z,23
2023-05-21T10:53:45.062Z,29
2023-05-21T10:56:15.470Z,27
2023-05-21T10:58:47.182Z,26
2023-05-21T11:01:19.842Z,26
2023-05-21T11:03:52.043Z,28
2023-05-21T11:06:22.932Z,27
2023-05-21T11:08:55.916Z,28
2023-05-21T11:11:26.787Z,27
2023-05-21T11:13:57.092Z,23
2023-05-21T11:16:31.481Z,25
2023-05-21T11:19:01.877Z,32
2023-05-21T11:21:32.604Z,44
2023-05-21T11:24:03.103Z,34
2023-05-21T11:26:37.520Z,28
2023-05-21T11:29:11.703Z,32
2023-05-21T11:31:42.706Z,25
2023-05-21T11:34:17.722Z,32
2023-05-21T11:36:47.464Z,28
2023-05-21T11:39:17.947Z,24
2023-05-21T11:41:48.766Z,25
2023-05-21T11:44:22.278Z,22
2023-05-21T11:46:52.972Z,25
2023-05-21T11:49:21.128Z,29
2023-05-21T11:51:56.041Z,24
2023-05-21T11:54:30.580Z,21
2023-05-21T11:57:01.182Z,25
2023-05-21T11:59:37.848Z,20
2023-05-21T12:02:14.258Z,24
2023-05-21T12:04:44.554Z,27
2023-05-21T12:07:15.282Z,23
2023-05-21T12:09:45.797Z,23
2023-05-21T12:12:14.899Z,25
2023-05-21T12:14:45.562Z,20
2023-05-21T12:17:16.116Z,27
2023-05-21T12:19:45.707Z,22
2023-05-21T12:22:17.515Z,24
2023-05-21T12:24:49.604Z,27
2023-05-21T12:27:29.286Z,18
2023-05-21T12:30:04.521Z,23
2023-05-21T12:32:34.937Z,25
2023-05-21T12:35:05.627Z,24
2023-05-21T12:37:36.022Z,24
2023-05-21T12:40:08.693Z,27
2023-05-21T12:42:39.280Z,25
2023-05-21T12:45:08.261Z,25
2023-05-21T12:47:39.145Z,25
2023-05-21T12:50:10.056Z,30
2023-05-21T12:52:40.920Z,32
2023-05-21T12:55:11.570Z,27
2023-05-21T12:57:41.025Z,32
2023-05-21T13:00:12.040Z,22
2023-05-21T13:02:42.474Z,24
2023-05-21T13:05:12.771Z,17
2023-05-21T13:07:41.982Z,40
2023-05-21T13:10:12.330Z,21
2023-05-21T13:12:43.559Z,26
2023-05-21T13:15:10.325Z,28
2023-05-21T13:17:41.790Z,26
2023-05-21T13:20:11.117Z,28
2023-05-21T13:22:42.752Z,21
2023-05-21T13:25:14.542Z,32
2023-05-21T13:32:52.835Z,31
2023-05-21T13:35:33.153Z,25
2023-05-21T13:38:10.577Z,24
2023-05-21T13:40:46.803Z,25
2023-05-21T13:43:19.168Z,28
2023-05-21T13:45:50.046Z,28
2023-05-21T13:48:28.096Z,31
2023-05-21T13:50:57.503Z,29
2023-05-21T13:53:27.889Z,22
2023-05-21T13:55:57.763Z,21
2023-05-21T13:58:27.928Z,27
2023-05-21T14:00:58.900Z,25
2023-05-21T14:03:30.977Z,32
2023-05-21T14:06:01.913Z,20
2023-05-21T14:08:30.748Z,25
2023-05-21T14:11:03.357Z,22
2023-05-21T14:13:32.761Z,22
2023-05-21T14:16:03.549Z,17
2023-05-21T14:18:34.190Z,20
2023-05-21T14:21:04.823Z,20
2023-05-21T14:23:34.006Z,24
2023-05-21T14:26:05.129Z,20
2023-05-21T14:28:34.272Z,20
2023-05-21T14:31:04.992Z,20
2023-05-21T14:33:37.725Z,20
2023-05-21T14:36:07.672Z,20
2023-05-21T14:38:38.512Z,24
2023-05-21T14:41:07.706Z,23
2023-05-21T14:43:38.557Z,18
2023-05-21T14:46:09.028Z,16
2023-05-21T14:48:39.314Z,20
2023-05-21T14:51:10.491Z,20
2023-05-21T14:53:42.099Z,17
2023-05-21T14:56:12.627Z,32
2023-05-21T14:58:47.135Z,24
2023-05-21T15:01:19.249Z,24
2023-05-21T15:03:49.313Z,28
2023-05-21T15:06:19.725Z,19
2023-05-21T15:08:51.365Z,21
2023-05-21T15:11:20.869Z,20
2023-05-21T15:13:55.590Z,29
2023-05-21T15:16:33.274Z,28
2023-05-21T15:19:04.015Z,18
2023-05-21T15:21:36.214Z,19
2023-05-21T15:24:07.915Z,22
2023-05-21T15:26:38.497Z,25
2023-05-21T15:29:09.243Z,25
2023-05-21T15:31:40.239Z,22
2023-05-21T15:34:11.181Z,21
2023-05-21T15:36:41.028Z,24
2023-05-21T15:39:12.003Z,20
2023-05-21T15:41:42.627Z,17
2023-05-21T15:44:11.724Z,20
2023-05-21T15:46:42.393Z,20
2023-05-21T15:49:13.383Z,20
2023-05-21T15:51:45.002Z,16
2023-05-21T15:54:16.268Z,17
2023-05-21T15:56:47.811Z,16
2023-05-21T15:59:19.444Z,16
2023-05-21T16:01:49.974Z,20
2023-05-21T16:04:21.514Z,21
2023-05-21T16:06:51.909Z,21
2023-05-21T16:09:31.632Z,15
2023-05-21T16:12:03.588Z,16
2023-05-21T16:14:38.300Z,20
2023-05-21T16:17:12.115Z,24
2023-05-21T16:19:43.936Z,23
2023-05-21T16:22:14.168Z,24
2023-05-21T16:24:45.029Z,21
2023-05-21T16:27:14.470Z,31
2023-05-21T16:29:46.268Z,37
2023-05-21T16:32:17.901Z,34
2023-05-21T16:34:48.613Z,25
2023-05-21T16:37:18.941Z,24
2023-05-21T16:39:49.473Z,25
2023-05-21T16:42:18.767Z,23
2023-05-21T16:44:49.081Z,21
2023-05-21T16:47:18.763Z,24
2023-05-21T16:49:48.965Z,17
2023-05-21T16:52:19.909Z,24
2023-05-21T16:54:51.660Z,21
2023-05-21T16:57:22.369Z,19
2023-05-21T16:59:51.795Z,21
2023-05-21T17:02:22.744Z,24
2023-05-21T17:04:53.793Z,24
2023-05-21T17:07:25.062Z,24
2023-05-21T17:09:54.179Z,22
2023-05-21T17:12:24.505Z,24
2023-05-21T17:14:55.247Z,20
2023-05-21T17:17:28.596Z,20
2023-05-21T17:19:59.032Z,24
2023-05-21T17:22:30.490Z,24
2023-05-21T17:25:00.586Z,20
2023-05-21T17:27:29.415Z,28
2023-05-21T17:29:59.857Z,20
2023-05-21T17:32:30.244Z,21
2023-05-21T17:34:59.588Z,24
2023-05-21T17:37:30.246Z,20
2023-05-21T17:39:59.435Z,21
2023-05-21T17:42:29.200Z,25
2023-05-21T17:45:00.626Z,22
2023-05-21T17:47:31.412Z,21
2023-05-21T17:50:02.066Z,20
2023-05-21T17:52:34.066Z,24
2023-05-21T17:55:04.925Z,16
2023-05-21T17:57:35.363Z,20
2023-05-21T18:00:05.787Z,17
2023-05-21T18:02:36.500Z,20
2023-05-21T18:05:06.879Z,19
2023-05-21T18:07:39.580Z,17
2023-05-21T18:10:09.841Z,21
2023-05-21T18:12:39.190Z,20
2023-05-21T18:15:09.883Z,17
2023-05-21T18:17:41.465Z,18
2023-05-21T18:20:11.698Z,17
2023-05-21T18:22:40.577Z,19
2023-05-21T18:25:10.991Z,19
2023-05-21T18:27:41.502Z,17
2023-05-21T18:30:10.127Z,17
2023-05-21T18:32:40.690Z,17
2023-05-21T18:35:20.555Z,12
2023-05-21T18:37:50.880Z,24
2023-05-21T18:40:21.450Z,20
2023-05-21T18:42:51.827Z,48
2023-05-21T18:45:22.114Z,26
2023-05-21T18:47:52.256Z,32
2023-05-21T18:50:23.090Z,17
2023-05-21T18:52:53.397Z,18
2023-05-21T18:55:24.068Z,18
2023-05-21T18:57:54.744Z,16
2023-05-21T19:00:23.340Z,16
2023-05-21T19:02:52.305Z,17
2023-05-21T19:05:22.251Z,19
2023-05-21T19:07:54.374Z,15
2023-05-21T19:10:25.147Z,16
2023-05-21T19:12:54.254Z,19
2023-05-21T19:15:23.232Z,16
2023-05-21T19:17:53.751Z,17
2023-05-21T19:20:24.207Z,19
2023-05-21T19:22:53.658Z,18
2023-05-21T19:25:24.395Z,13
2023-05-21T19:27:53.174Z,17
2023-05-21T19:30:23.732Z,15
2023-05-21T19:32:54.289Z,16
2023-05-21T19:35:25.184Z,17
2023-05-21T19:37:55.593Z,14
2023-05-21T19:40:27.301Z,20
2023-05-21T19:42:56.431Z,17
2023-05-21T19:45:27.912Z,25
2023-05-21T19:47:57.040Z,19
2023-05-21T19:50:28.242Z,16
2023-05-21T19:52:58.581Z,20
2023-05-21T19:55:28.947Z,16
2023-05-21T19:57:59.699Z,24
2023-05-21T20:00:30.012Z,12
2023-05-21T20:03:00.429Z,16
2023-05-21T20:05:31.121Z,13
2023-05-21T20:08:00.711Z,14
2023-05-21T20:10:31.187Z,13
2023-05-21T20:13:00.190Z,16
2023-05-21T20:15:30.451Z,24
2023-05-21T20:18:01.295Z,17
2023-05-21T20:20:30.956Z,19
2023-05-21T20:23:01.875Z,16
2023-05-21T20:25:30.934Z,16
2023-05-21T20:28:01.055Z,16
2023-05-21T20:30:31.799Z,16
2023-05-21T20:33:02.580Z,15
2023-05-21T20:35:33.096Z,17
2023-05-21T20:38:03.690Z,16
2023-05-21T20:40:34.600Z,14
2023-05-21T20:43:05.439Z,12
2023-05-21T20:45:36.277Z,16
2023-05-21T20:48:07.122Z,15
2023-05-21T20:50:38.006Z,16
2023-05-21T20:53:08.229Z,13
2023-05-21T20:55:39.096Z,12
2023-05-21T20:58:07.960Z,16
2023-05-21T21:00:39.960Z,14
2023-05-21T21:03:10.695Z,13
2023-05-21T21:05:41.388Z,15
2023-05-21T21:08:14.279Z,12
2023-05-21T21:10:44.359Z,16
2023-05-21T21:13:14.825Z,12
2023-05-21T21:15:45.359Z,16
2023-05-21T21:18:16.341Z,15
2023-05-21T21:20:45.267Z,13
2023-05-21T21:23:15.898Z,16
2023-05-21T21:25:47.322Z,12
2023-05-21T21:28:16.231Z,17
2023-05-21T21:30:47.363Z,13
2023-05-21T21:33:16.636Z,19
2023-05-21T21:35:50.550Z,12
2023-05-21T21:38:21.067Z,20
2023-05-21T21:40:53.470Z,19
2023-05-21T21:43:22.554Z,16
2023-05-21T21:45:52.628Z,16
2023-05-21T21:48:24.602Z,15
2023-05-21T21:50:55.402Z,13
2023-05-21T21:53:26.019Z,16
2023-05-21T21:58:47.164Z,8
2023-05-21T22:01:26.310Z,12
2023-05-21T22:04:01.185Z,16
2023-05-21T22:06:38.516Z,15
2023-05-21T22:09:09.104Z,16
2023-05-21T22:11:45.616Z,15
2023-05-21T22:14:16.121Z,18
2023-05-21T22:16:47.220Z,15
2023-05-21T22:19:17.892Z,17
2023-05-21T22:21:48.346Z,12
2023-05-21T22:24:32.258Z,8
2023-05-21T22:27:01.188Z,13
2023-05-21T22:29:33.370Z,13
2023-05-21T22:32:03.748Z,16
2023-05-21T22:34:34.782Z,15
2023-05-21T22:37:06.426Z,12
2023-05-21T22:39:36.628Z,12
2023-05-21T22:42:07.014Z,15
2023-05-21T22:44:37.682Z,16
2023-05-21T22:47:08.383Z,15
2023-05-21T22:49:40.066Z,11
2023-05-21T22:52:10.777Z,12
2023-05-21T22:54:39.703Z,20
2023-05-21T22:57:18.073Z,12
2023-05-21T22:59:48.732Z,16
2023-05-21T23:02:19.660Z,15
2023-05-21T23:04:49.162Z,20
2023-05-21T23:07:19.732Z,12
2023-05-21T23:09:51.611Z,15
2023-05-21T23:12:23.515Z,15
2023-05-21T23:14:54.117Z,12
2023-05-21T23:17:24.750Z,15
2023-05-21T23:19:55.364Z,19
2023-05-21T23:22:39.748Z,12
2023-05-21T23:25:11.080Z,16
2023-05-21T23:27:41.499Z,12
2023-05-21T23:30:14.097Z,15
2023-05-21T23:32:44.525Z,13
2023-05-21T23:35:24.334Z,17
2023-05-21T23:37:59.063Z,16
2023-05-21T23:40:29.156Z,13
2023-05-21T23:42:59.782Z,16
2023-05-21T23:45:30.755Z,15
2023-05-21T23:48:01.256Z,16
2023-05-21T23:50:31.817Z,16
2023-05-21T23:53:02.589Z,16
2023-05-21T23:55:31.570Z,19
2023-05-21T23:58:01.975Z,12
